<<    Januar 2010    >>
Datum    Temp.       Tempmin      Tempmax    Taup.       Taup.min      Taup.max    Feuchte    Feuchtemin    Feuchtemax    Druck    Druckmin    Druckmax    Regen    Wind    Benmax  
  01.01.2010  -0,5    -1,5    23:16    0,5    00:00  -1,5    -3,6    22:46    0,2    00:00  92,6    85    22:42    98    00:00  998,7    994    00:00    1008    22:58  0,0  3,8  14,4  
  02.01.2010  -0,6    -4,8    08:48    2,9    12:57  -3,2    -5,6    08:31    -1,5    19:05  83,2    61    12:45    97    09:27  1014,9    1008    00:00    1018    15:58  0,0  2,2  12,6  
  03.01.2010  -2,1    -5,1    17:34    0,8    00:00  -3,9    -7,4    14:13    0,4    07:12  87,6    70    14:13    98    06:29  1019,6    1016    04:28    1023    18:42  0,0  2,7  10,8  
  04.01.2010  -3,4    -5,5    07:33    0,1    12:34  -6,2    -7,6    15:30    -4,9    11:16  81,0    64    12:44    93    08:50  1017,8    1013    19:57    1022    00:00  0,0  1,7  9,0  
  05.01.2010  -2,8    -5,2    23:59    -0,7    13:40  -6,2    -8,2    23:33    -4,9    10:52  77,6    69    16:39    86    04:53  1007,9    1004    23:59    1013    00:00  0,0  2,1  9,0  
  06.01.2010  -3,6    -6,2    06:49    0,5    12:43  -7,2    -8,8    05:21    -5,6    23:59  76,1    58    12:53    84    07:09  1004,5    1003    02:27    1007    20:42  0,0  1,0  7,2  
  07.01.2010  -4,1    -9,3    23:56    -0,6    14:27  -6,6    -10,6    23:59    -4,6    01:40  82,8    69    14:30    91    23:02  1010,1    1005    00:00    1016    23:59  0,0  0,5  5,4  
  08.01.2010  -6,4    -11,3    07:46    -1,4    13:20  -9,0    -12,5    03:50    -3,2    12:40  82,2    65    14:41    94    04:20  1018,0    1016    00:00    1020    10:12  0,0  2,6  19,4  
  09.01.2010  -1,7    -3,3    02:01    -0,4    13:47  -5,2    -7,8    02:11    -2,2    11:59  77,0    69    03:43    90    11:39  1014,5    1012    18:11    1018    00:00  5,8  5,0  23,4  
  10.01.2010  -0,6    -2,2    08:22    1,8    13:33  -4,8    -6,0    00:02    -2,7    10:22  73,5    61    13:43    86    08:57  1014,4    1011    01:25    1017    19:25  0,0  1,6  10,4  
  11.01.2010  -0,8    -1,7    07:37    0,8    12:47  -3,1    -4,7    23:45    -1,3    11:47  84,1    76    15:07    93    18:32  1017,6    1017    00:00    1018    00:40  0,0  1,5  7,9  
  12.01.2010  -1,3    -2,4    06:40    0,1    11:28  -4,7    -5,9    23:28    -2,5    08:04  77,4    69    13:15    93    08:03  1014,2    1007    22:40    1019    02:55  0,0  2,2  17,6  
  13.01.2010  -1,5    -2,7    08:18    0,5    13:34  -5,9    -7,9    10:25    -3,8    23:34  72,2    56    13:00    87    17:53  1005,9    1005    02:55    1007    00:00  0,0  5,3  23,0  
  14.01.2010  1,7    -0,8    00:00    5,5    12:41  -1,3    -3,8    00:00    -0,4    15:23  80,4    61    12:24    92    08:01  1008,7    1006    00:00    1014    23:54  0,0  3,0  15,1  
  15.01.2010  1,7    0,9    02:59    2,5    13:47  -1,1    -1,7    00:50    -0,5    23:14  81,9    76    13:40    87    04:17  1020,7    1014    00:00    1025    17:39  0,0  3,3  15,5  
  16.01.2010  0,7    0,1    06:26    1,6    00:00  -1,9    -3,4    14:05    0,4    23:21  82,8    74    14:01    98    23:59  1017,8    1008    23:59    1026    00:09  0,0  5,9  27,7  
  17.01.2010  3,2    0,7    00:00    5,9    15:09  2,8    0,4    00:00    5,5    15:09  97,2    90    15:32    98    00:00  1013,5    1007    00:55    1022    22:54  12,3  2,1  20,2  
  18.01.2010  5,2    4,1    03:32    7,9    13:27  3,8    2,9    17:10    5,5    13:20  90,8    78    13:44    98    00:00  1024,7    1021    00:54    1026    10:25  0,0  1,3  11,9  
  19.01.2010  4,9    4,0    23:53    6,8    14:00  4,2    3,7    00:00    5,9    12:54  95,5    86    14:21    98    06:44  1022,3    1019    21:54    1025    00:00  0,0  0,9  11,5  
  20.01.2010  4,0    2,3    08:26    7,0    13:56  -0,2    -1,8    07:57    3,7    00:00  75,2    56    11:54    98    00:00  1015,5    1013    11:53    1020    00:00  0,0  3,0  17,3  
  21.01.2010  3,2    2,4    06:21    4,4    15:30  -1,2    -2,0    03:16    -0,4    12:41  72,6    66    15:02    78    07:57  1020,8    1016    00:00    1024    20:39  0,0  3,1  20,2  
  22.01.2010  3,4    2,6    23:59    4,7    15:00  -0,9    -1,4    23:56    -0,3    15:55  73,8    68    13:27    78    08:31  1024,5    1023    01:08    1026    19:08  0,0  2,9  14,4  
  23.01.2010  0,9    0,1    23:59    2,6    00:00  -3,2    -4,5    14:11    -1,4    00:00  74,5    63    13:27    79    06:28  1023,4    1022    13:23    1025    00:00  0,0  4,2  19,4  
  24.01.2010  0,6    -0,2    07:31    1,7    14:03  -1,2    -3,8    00:00    0,4    18:10  87,4    75    00:00    98    22:09  1023,4    1022    02:07    1025    19:53  0,0  1,6  13,0  
  25.01.2010  -0,4    -2,5    23:22    0,7    10:03  -0,8    -3,2    23:22    0,4    10:03  96,9    94    13:14    98    00:00  1028,0    1023    00:07    1034    23:07  0,0  0,3  8,6  
  26.01.2010  -3,9    -9,5    23:46    0,7    12:37  -7,3    -11,4    23:46    -2,8    00:00  78,2    53    12:46    96    00:00  1037,1    1033    02:22    1040    19:07  0,0  2,4  9,7  
  27.01.2010  -4,3    -10,7    02:35    0,6    23:10  -7,5    -12,4    02:35    0,3    23:33  79,7    54    18:42    98    23:59  1027,7    1010    23:52    1039    00:00  0,0  2,0  21,2  
  28.01.2010  2,3    0,6    00:00    4,7    11:57  0,8    -0,1    05:45    2,2    11:05  90,0    75    11:56    98    00:00  1006,2    1001    23:59    1011    00:22  6,7  5,6  20,9  
  29.01.2010  1,7    0,4    21:08    3,1    14:10  1,3    -0,6    23:59    2,8    14:10  97,5    91    23:58    98    00:00  989,6    982    15:36    1001    00:00  7,5  3,6  15,8  
  30.01.2010  -0,6    -5,3    19:59    3,8    14:38  -2,5    -7,0    19:39    0,1    04:54  87,4    58    14:39    98    04:35  993,6    987    00:00    1001    23:59  1,2  3,1  16,2  
  31.01.2010  1,0    -2,5    00:00    5,7    11:50  -1,9    -4,2    15:29    0,9    06:46  82,6    55    11:46    98    00:06  1003,5    1000    00:07    1007    23:21  0,9  3,1  14,0  
 
  Gesamt  -0,1  -11,3            7,9            -2,8  -12,5            5,9            83,0  53            98            1014,8  982            1040            34,3  2,7  27,7  
 
  Mittelwert  -0,1  -2,4            2,4            -2,8  -4,9            -0,5            83,0  69,2            92,8            1014,8  1010,3            1019,3            1,1  2,7  14,9  
  Minimum  -6,4  -11,3            -1,4            -9,0  -12,5            -5,6            72,2  53,0            78,0            989,6  982,0            1001,0            0,0  0,3  5,4  
  Maximum  5,2  4,1            7,9            4,2  3,7            5,9            97,5  94,0            98,0            1037,1  1033,0            1040,0            12,3  5,9  27,7  

  Heie Tage    Tmax >=30C     0  
  Sommertage    Tmax >=25C     0  
  Warme Tage    Tmax >=20C     0  
  Kalte Tage    Tmax  <10C     31  
  Frosttage    Tmin  <0C     20  
  Eistage    Tmax  <0C     4  
  Regentage > 0 mm    6  
  Regentage > 2 mm    4  
  Regentage > 10 mm    1  
  Regentage > 20 mm    0